createdAt,value
2022-10-26T00:01:30.450Z,3.00
2022-10-26T00:03:59.704Z,3.47
2022-10-26T00:06:29.816Z,3.10
2022-10-26T00:08:59.424Z,3.07
2022-10-26T00:11:29.167Z,3.70
2022-10-26T00:13:57.554Z,3.17
2022-10-26T00:16:28.308Z,2.97
2022-10-26T00:18:57.493Z,2.93
2022-10-26T00:21:25.939Z,2.73
2022-10-26T00:23:54.371Z,2.60
2022-10-26T00:26:22.844Z,2.93
2022-10-26T00:28:54.562Z,2.80
2022-10-26T00:31:23.613Z,2.63
2022-10-26T00:33:54.175Z,2.70
2022-10-26T00:36:23.491Z,2.73
2022-10-26T00:38:53.958Z,2.83
2022-10-26T00:41:25.382Z,2.67
2022-10-26T00:43:55.689Z,2.97
2022-10-26T00:46:28.832Z,3.00
2022-10-26T00:49:01.458Z,2.90
2022-10-26T00:51:35.617Z,3.90
2022-10-26T00:54:11.791Z,3.37
2022-10-26T00:56:42.234Z,3.50
2022-10-26T00:59:16.099Z,3.47
2022-10-26T01:01:48.618Z,3.00
2022-10-26T01:04:18.253Z,3.77
2022-10-26T01:06:48.270Z,3.13
2022-10-26T01:09:19.714Z,2.70
2022-10-26T01:11:48.651Z,3.40
2022-10-26T01:14:21.528Z,3.03
2022-10-26T01:17:06.368Z,3.37
2022-10-26T01:20:44.362Z,3.40
2022-10-26T01:23:26.838Z,3.60
2022-10-26T01:26:38.766Z,3.07
2022-10-26T01:30:00.472Z,3.10
2022-10-26T01:32:35.956Z,3.87
2022-10-26T01:35:12.013Z,3.70
2022-10-26T01:37:50.136Z,3.77
2022-10-26T01:40:29.247Z,4.57
2022-10-26T01:43:03.766Z,4.10
2022-10-26T01:45:35.632Z,4.10
2022-10-26T01:48:07.653Z,4.80
2022-10-26T01:50:38.371Z,4.47
2022-10-26T01:53:08.191Z,4.40
2022-10-26T01:55:50.953Z,4.17
2022-10-26T01:59:03.032Z,3.47
2022-10-26T02:01:54.359Z,4.23
2022-10-26T02:04:43.346Z,4.00
2022-10-26T02:07:27.587Z,3.97
2022-10-26T02:10:11.277Z,4.83
2022-10-26T02:12:50.696Z,4.17
2022-10-26T02:15:26.963Z,3.67
2022-10-26T02:18:01.753Z,3.60
2022-10-26T02:20:37.388Z,3.33
2022-10-26T02:23:08.936Z,3.33
2022-10-26T02:25:45.305Z,3.43
2022-10-26T02:28:21.137Z,2.73
2022-10-26T02:30:55.301Z,3.23
2022-10-26T02:33:30.370Z,3.30
2022-10-26T02:36:06.495Z,2.73
2022-10-26T02:38:38.758Z,2.87
2022-10-26T02:41:09.598Z,3.33
2022-10-26T02:43:45.881Z,2.60
2022-10-26T02:46:21.846Z,2.47
2022-10-26T02:48:50.747Z,2.23
2022-10-26T02:51:32.602Z,2.20
2022-10-26T02:54:12.471Z,2.20
2022-10-26T02:56:50.170Z,2.27
2022-10-26T02:59:23.534Z,2.00
2022-10-26T03:01:54.486Z,2.20
2022-10-26T03:04:30.801Z,2.10
2022-10-26T03:07:00.899Z,1.93
2022-10-26T03:09:30.337Z,2.13
2022-10-26T03:11:59.290Z,1.70
2022-10-26T03:14:27.677Z,2.30
2022-10-26T03:16:56.062Z,1.93
2022-10-26T03:19:25.855Z,2.30
2022-10-26T03:21:54.603Z,1.93
2022-10-26T03:24:26.302Z,2.17
2022-10-26T03:26:57.058Z,2.20
2022-10-26T03:29:28.109Z,2.10
2022-10-26T03:31:56.563Z,2.30
2022-10-26T03:34:24.961Z,2.40
2022-10-26T03:36:53.379Z,2.70
2022-10-26T03:39:21.759Z,2.30
2022-10-26T03:41:51.512Z,2.33
2022-10-26T03:44:19.975Z,2.33
2022-10-26T03:46:48.902Z,2.30
2022-10-26T03:49:17.514Z,2.23
2022-10-26T03:51:45.886Z,2.20
2022-10-26T03:54:14.273Z,2.20
2022-10-26T03:56:42.705Z,2.30
2022-10-26T03:59:12.454Z,2.20
2022-10-26T04:01:41.100Z,2.57
2022-10-26T04:04:10.184Z,2.60
2022-10-26T04:06:39.422Z,2.50
2022-10-26T04:09:08.216Z,1.93
2022-10-26T04:11:36.613Z,2.47
2022-10-26T04:14:05.553Z,2.20
2022-10-26T04:16:35.316Z,2.23
2022-10-26T04:19:04.306Z,2.20
2022-10-26T04:21:33.098Z,2.47
2022-10-26T04:24:01.797Z,2.00
2022-10-26T04:26:30.224Z,2.20
2022-10-26T04:28:59.162Z,2.47
2022-10-26T04:31:27.557Z,2.20
2022-10-26T04:33:57.841Z,2.27
2022-10-26T04:36:27.242Z,2.13
2022-10-26T04:38:55.638Z,2.10
2022-10-26T04:41:24.130Z,2.40
2022-10-26T04:43:52.534Z,2.17
2022-10-26T04:46:20.931Z,2.10
2022-10-26T04:48:50.045Z,2.13
2022-10-26T04:51:20.446Z,2.83
2022-10-26T04:53:49.358Z,2.50
2022-10-26T04:56:17.760Z,2.10
2022-10-26T04:58:46.186Z,2.00
2022-10-26T05:01:14.672Z,2.30
2022-10-26T05:03:43.147Z,2.30
2022-10-26T05:06:11.820Z,2.10
2022-10-26T05:08:42.048Z,2.13
2022-10-26T05:11:10.502Z,2.47
2022-10-26T05:13:39.459Z,1.73
2022-10-26T05:16:08.907Z,1.90
2022-10-26T05:18:37.303Z,1.80
2022-10-26T05:21:06.560Z,1.90
2022-10-26T05:23:35.289Z,1.77
2022-10-26T05:26:05.639Z,2.30
2022-10-26T05:28:34.192Z,2.07
2022-10-26T05:31:02.688Z,1.93
2022-10-26T05:33:31.782Z,2.17
2022-10-26T05:36:00.602Z,1.87
2022-10-26T05:38:29.841Z,1.90
2022-10-26T05:40:59.042Z,1.90
2022-10-26T05:43:28.943Z,2.00
2022-10-26T05:45:57.526Z,1.80
2022-10-26T05:48:25.947Z,2.00
2022-10-26T05:50:54.467Z,3.27
2022-10-26T05:53:22.990Z,2.43
2022-10-26T05:55:52.233Z,2.23
2022-10-26T05:58:21.388Z,1.93
2022-10-26T06:01:13.163Z,2.40
2022-10-26T06:04:04.295Z,1.80
2022-10-26T06:06:43.377Z,5.80
2022-10-26T06:09:14.499Z,4.10
2022-10-26T06:11:43.799Z,3.17
2022-10-26T06:14:13.377Z,2.37
2022-10-26T06:17:04.695Z,2.10
2022-10-26T06:19:53.530Z,2.00
2022-10-26T06:22:40.081Z,2.07
2022-10-26T06:25:25.839Z,2.00
2022-10-26T06:28:06.119Z,1.60
2022-10-26T06:30:34.740Z,1.77
2022-10-26T06:33:06.329Z,2.00
2022-10-26T06:35:59.769Z,2.00
2022-10-26T06:38:31.821Z,1.73
2022-10-26T06:41:01.515Z,1.77
2022-10-26T06:43:35.580Z,1.80
2022-10-26T06:46:17.994Z,1.70
2022-10-26T06:49:01.787Z,1.60
2022-10-26T06:51:34.375Z,1.73
2022-10-26T06:54:16.669Z,1.30
2022-10-26T06:56:47.221Z,2.20
2022-10-26T06:59:31.602Z,1.43
2022-10-26T07:02:02.950Z,1.70
2022-10-26T07:04:35.634Z,1.77
2022-10-26T07:07:04.718Z,1.90
2022-10-26T07:09:33.135Z,1.47
2022-10-26T07:12:02.000Z,1.87
2022-10-26T07:14:30.970Z,1.80
2022-10-26T07:16:59.466Z,1.67
2022-10-26T07:19:27.850Z,1.70
2022-10-26T07:22:00.173Z,1.87
2022-10-26T07:24:29.239Z,2.00
2022-10-26T07:26:59.367Z,1.97
2022-10-26T07:29:28.762Z,2.00
2022-10-26T07:31:57.169Z,1.73
2022-10-26T07:34:26.241Z,1.70
2022-10-26T07:36:54.848Z,1.23
2022-10-26T07:39:24.749Z,1.50
2022-10-26T07:41:54.027Z,1.33
2022-10-26T07:44:22.510Z,1.20
2022-10-26T07:46:50.968Z,1.10
2022-10-26T07:49:19.980Z,1.00
2022-10-26T07:51:49.258Z,1.40
2022-10-26T07:54:18.301Z,1.20
2022-10-26T07:56:50.286Z,1.40
2022-10-26T07:59:19.366Z,1.13
2022-10-26T08:01:47.910Z,1.30
2022-10-26T08:04:16.367Z,1.30
2022-10-26T08:06:45.033Z,1.33
2022-10-26T08:09:13.823Z,1.53
2022-10-26T08:11:42.360Z,1.27
2022-10-26T08:14:12.878Z,1.20
2022-10-26T08:16:41.292Z,1.50
2022-10-26T08:19:10.183Z,1.40
2022-10-26T08:21:40.705Z,1.73
2022-10-26T08:24:09.873Z,2.20
2022-10-26T08:26:38.651Z,1.43
2022-10-26T08:29:07.071Z,2.30
2022-10-26T08:31:36.813Z,2.00
2022-10-26T08:34:05.247Z,2.47
2022-10-26T08:36:33.646Z,2.60
2022-10-26T08:39:02.071Z,2.23
2022-10-26T08:41:38.460Z,1.70
2022-10-26T08:44:23.557Z,2.03
2022-10-26T08:46:59.323Z,1.40
2022-10-26T08:49:33.618Z,2.30
2022-10-26T08:52:03.783Z,1.30
2022-10-26T08:54:40.561Z,1.40
2022-10-26T08:57:20.107Z,1.40
2022-10-26T08:59:58.266Z,1.60
2022-10-26T09:02:28.573Z,1.40
2022-10-26T09:05:00.353Z,1.10
2022-10-26T09:07:47.587Z,1.50
2022-10-26T09:10:38.886Z,1.43
2022-10-26T09:13:24.714Z,1.20
2022-10-26T09:16:07.645Z,1.30
2022-10-26T09:18:53.495Z,1.00
2022-10-26T09:21:37.602Z,1.23
2022-10-26T09:24:15.390Z,1.80
2022-10-26T09:26:56.354Z,1.40
2022-10-26T09:29:30.447Z,1.33
2022-10-26T09:32:02.827Z,1.00
2022-10-26T09:34:40.635Z,1.63
2022-10-26T09:37:19.768Z,1.50
2022-10-26T09:40:06.573Z,1.30
2022-10-26T09:42:45.132Z,1.50
2022-10-26T09:45:21.748Z,1.73
2022-10-26T09:47:55.477Z,1.50
2022-10-26T09:50:32.179Z,2.60
2022-10-26T09:53:00.684Z,2.47
2022-10-26T09:55:32.109Z,2.40
2022-10-26T09:58:07.119Z,1.67
2022-10-26T10:00:36.557Z,1.33
2022-10-26T10:03:21.238Z,1.57
2022-10-26T10:05:52.701Z,1.50
2022-10-26T10:08:24.263Z,1.10
2022-10-26T10:10:59.020Z,1.47
2022-10-26T10:13:31.887Z,0.90
2022-10-26T10:16:07.984Z,1.40
2022-10-26T10:18:38.726Z,1.70
2022-10-26T10:21:10.671Z,1.10
2022-10-26T10:23:53.256Z,1.40
2022-10-26T10:26:21.951Z,1.37
2022-10-26T10:28:59.484Z,1.17
2022-10-26T10:31:33.176Z,1.37
2022-10-26T10:34:16.404Z,1.33
2022-10-26T10:36:46.995Z,1.40
2022-10-26T10:39:38.486Z,1.53
2022-10-26T10:42:19.511Z,1.40
2022-10-26T10:44:52.742Z,1.30
2022-10-26T10:47:26.366Z,1.83
2022-10-26T10:50:03.708Z,1.50
2022-10-26T10:52:36.765Z,1.30
2022-10-26T10:55:20.441Z,1.43
2022-10-26T10:58:09.088Z,1.60
2022-10-26T11:00:39.239Z,2.87
2022-10-26T11:03:40.946Z,1.40
2022-10-26T11:06:17.802Z,1.70
2022-10-26T11:08:56.768Z,1.30
2022-10-26T11:11:32.954Z,1.47
2022-10-26T11:14:07.212Z,1.33
2022-10-26T11:16:41.939Z,1.03
2022-10-26T11:19:21.062Z,1.33
2022-10-26T11:21:54.776Z,1.10
2022-10-26T11:24:32.426Z,1.10
2022-10-26T11:27:11.968Z,1.23
2022-10-26T11:29:52.181Z,1.30
2022-10-26T11:32:25.087Z,1.20
2022-10-26T11:35:04.067Z,1.20
2022-10-26T11:37:43.895Z,1.50
2022-10-26T11:40:26.513Z,1.10
2022-10-26T11:43:11.940Z,1.10
2022-10-26T11:45:45.097Z,1.10
2022-10-26T11:48:22.015Z,1.30
2022-10-26T11:50:55.808Z,0.90
2022-10-26T11:53:29.853Z,1.00
2022-10-26T11:56:02.769Z,0.90
2022-10-26T11:58:33.544Z,1.30
2022-10-26T12:01:09.002Z,0.87
2022-10-26T12:03:45.599Z,1.23
2022-10-26T12:06:20.303Z,1.07
2022-10-26T12:09:00.512Z,1.50
2022-10-26T12:11:42.978Z,0.87
2022-10-26T12:14:23.173Z,1.60
2022-10-26T12:17:07.197Z,1.20
2022-10-26T12:19:48.875Z,0.93
2022-10-26T12:22:21.683Z,0.90
2022-10-26T12:25:19.697Z,1.07
2022-10-26T12:27:56.052Z,0.93
2022-10-26T12:30:29.239Z,0.87
2022-10-26T12:33:00.442Z,1.10
2022-10-26T12:35:39.561Z,1.07
2022-10-26T12:38:57.183Z,1.63
2022-10-26T12:41:27.776Z,1.10
2022-10-26T12:44:31.578Z,1.23
2022-10-26T12:47:00.447Z,1.17
2022-10-26T12:50:00.094Z,1.10
2022-10-26T12:52:53.673Z,1.10
2022-10-26T12:56:02.586Z,0.80
2022-10-26T12:59:20.933Z,1.27
2022-10-26T13:02:39.940Z,1.30
2022-10-26T13:05:38.800Z,1.10
2022-10-26T13:08:13.692Z,1.00
2022-10-26T13:11:02.871Z,1.17
2022-10-26T13:13:34.810Z,1.10
2022-10-26T13:16:05.046Z,1.10
2022-10-26T13:18:44.848Z,1.20
2022-10-26T13:21:16.942Z,1.33
2022-10-26T13:23:48.927Z,1.70
2022-10-26T13:26:20.202Z,1.17
2022-10-26T13:28:53.509Z,1.23
2022-10-26T13:31:56.633Z,1.73
2022-10-26T13:34:31.942Z,2.30
2022-10-26T13:37:13.797Z,2.50
2022-10-26T13:39:46.603Z,1.50
2022-10-26T13:42:22.369Z,1.53
2022-10-26T13:44:58.245Z,1.57
2022-10-26T13:47:33.613Z,1.40
2022-10-26T13:50:12.172Z,1.43
2022-10-26T13:52:46.548Z,1.20
2022-10-26T13:55:25.154Z,1.40
2022-10-26T13:58:12.276Z,1.50
2022-10-26T14:00:40.902Z,1.73
2022-10-26T14:03:21.073Z,1.63
2022-10-26T14:05:52.378Z,2.07
2022-10-26T14:08:23.092Z,1.30
2022-10-26T14:10:57.320Z,1.57
2022-10-26T14:13:28.422Z,1.40
2022-10-26T14:15:59.741Z,1.30
2022-10-26T14:18:32.148Z,1.43
2022-10-26T14:21:07.530Z,1.37
2022-10-26T14:23:38.737Z,1.47
2022-10-26T14:26:07.394Z,1.73
2022-10-26T14:28:48.864Z,1.70
2022-10-26T14:31:25.553Z,1.40
2022-10-26T14:33:55.916Z,1.90
2022-10-26T14:36:33.153Z,1.20
2022-10-26T14:39:07.961Z,1.40
2022-10-26T14:41:37.422Z,1.73
2022-10-26T14:44:17.533Z,1.53
2022-10-26T14:46:46.683Z,1.40
2022-10-26T14:49:22.676Z,1.77
2022-10-26T14:51:58.899Z,1.67
2022-10-26T14:54:30.224Z,1.43
2022-10-26T14:57:02.579Z,2.00
2022-10-26T14:59:33.066Z,1.70
2022-10-26T15:02:17.173Z,2.20
2022-10-26T15:05:00.569Z,2.20
2022-10-26T15:07:39.783Z,1.77
2022-10-26T15:10:47.750Z,2.40
2022-10-26T15:13:27.937Z,2.97
2022-10-26T15:16:08.772Z,2.20
2022-10-26T15:18:39.706Z,2.07
2022-10-26T15:21:24.111Z,2.50
2022-10-26T15:23:56.415Z,1.90
2022-10-26T15:26:26.516Z,2.00
2022-10-26T15:28:56.776Z,2.87
2022-10-26T15:31:35.117Z,2.50
2022-10-26T15:34:15.653Z,2.50
2022-10-26T15:36:44.589Z,2.43
2022-10-26T15:39:14.720Z,2.43
2022-10-26T15:41:48.307Z,2.07
2022-10-26T15:44:22.918Z,2.57
2022-10-26T15:46:51.707Z,2.90
2022-10-26T15:49:22.231Z,2.43
2022-10-26T15:51:50.873Z,2.53
2022-10-26T15:54:21.122Z,3.00
2022-10-26T15:56:50.037Z,3.23
2022-10-26T15:59:20.815Z,2.80
2022-10-26T16:01:52.361Z,3.27
2022-10-26T16:04:20.914Z,2.23
2022-10-26T16:06:50.022Z,2.53
2022-10-26T16:09:20.398Z,2.80
2022-10-26T16:11:48.932Z,2.70
2022-10-26T16:14:17.776Z,2.30
2022-10-26T16:16:46.239Z,2.83
2022-10-26T16:19:31.465Z,2.67
2022-10-26T16:22:00.875Z,2.90
2022-10-26T16:24:32.424Z,3.13
2022-10-26T16:27:01.009Z,4.10
2022-10-26T16:29:29.639Z,4.00
2022-10-26T16:31:58.306Z,3.33
2022-10-26T16:34:27.425Z,3.50
2022-10-26T16:36:55.842Z,3.37
2022-10-26T16:39:24.792Z,3.30
2022-10-26T16:41:55.075Z,3.00
2022-10-26T16:44:23.864Z,2.77
2022-10-26T16:46:52.373Z,2.53
2022-10-26T16:49:20.794Z,3.00
2022-10-26T16:51:49.914Z,3.63
2022-10-26T16:54:19.512Z,2.83
2022-10-26T16:56:47.962Z,3.37
2022-10-26T16:59:18.001Z,3.23
2022-10-26T17:01:47.079Z,3.00
2022-10-26T17:04:15.908Z,2.60
2022-10-26T17:06:44.345Z,3.63
2022-10-26T17:09:12.745Z,3.27
2022-10-26T17:11:41.195Z,2.97
2022-10-26T17:14:09.725Z,3.20
2022-10-26T17:16:39.728Z,3.37
2022-10-26T17:19:08.392Z,3.13
2022-10-26T17:21:37.055Z,2.70
2022-10-26T17:24:06.733Z,3.60
2022-10-26T17:26:35.487Z,3.20
2022-10-26T17:29:04.675Z,3.53
2022-10-26T17:31:34.021Z,3.53
2022-10-26T17:34:03.737Z,2.90
2022-10-26T17:36:32.794Z,3.20
2022-10-26T17:39:01.732Z,3.07
2022-10-26T17:41:30.331Z,3.00
2022-10-26T17:43:59.290Z,3.10
2022-10-26T17:46:28.038Z,3.20
2022-10-26T17:48:57.647Z,3.00
2022-10-26T17:51:30.174Z,2.97
2022-10-26T17:54:00.066Z,3.00
2022-10-26T17:56:32.175Z,3.57
2022-10-26T17:59:03.307Z,3.13
2022-10-26T18:01:32.353Z,3.87
2022-10-26T18:04:01.839Z,3.17
2022-10-26T18:06:31.646Z,3.00
2022-10-26T18:09:00.413Z,3.17
2022-10-26T18:11:29.395Z,3.57
2022-10-26T18:13:58.499Z,3.27
2022-10-26T18:16:29.110Z,4.13
2022-10-26T18:19:01.496Z,3.47
2022-10-26T18:21:37.283Z,3.27
2022-10-26T18:24:07.572Z,3.73
2022-10-26T18:26:36.845Z,3.57
2022-10-26T18:29:06.761Z,3.83
2022-10-26T18:31:35.900Z,4.30
2022-10-26T18:34:07.124Z,4.03
2022-10-26T18:39:07.282Z,3.70
2022-10-26T18:41:35.786Z,3.43
2022-10-26T18:44:04.662Z,4.40
2022-10-26T18:46:39.606Z,4.00
2022-10-26T18:49:08.313Z,3.50
2022-10-26T18:51:38.401Z,4.77
2022-10-26T18:54:06.902Z,3.70
2022-10-26T18:56:35.373Z,3.57
2022-10-26T18:59:05.630Z,3.10
2022-10-26T19:01:39.379Z,3.23
2022-10-26T19:04:10.325Z,3.10
2022-10-26T19:06:45.030Z,3.20
2022-10-26T19:09:14.625Z,3.00
2022-10-26T19:11:43.369Z,3.37
2022-10-26T19:14:13.687Z,3.57
2022-10-26T19:16:47.323Z,3.13
2022-10-26T19:19:17.084Z,3.33
2022-10-26T19:21:49.152Z,4.30
2022-10-26T19:24:20.010Z,3.60
2022-10-26T19:26:51.201Z,3.27
2022-10-26T19:29:21.268Z,3.77
2022-10-26T19:31:53.624Z,3.83
2022-10-26T19:34:22.301Z,3.53
2022-10-26T19:36:52.209Z,4.20
2022-10-26T19:39:20.624Z,3.20
2022-10-26T19:41:49.565Z,4.23
2022-10-26T19:44:22.026Z,4.00
2022-10-26T19:46:53.588Z,3.40
2022-10-26T19:49:23.362Z,3.10
2022-10-26T19:51:53.782Z,3.07
2022-10-26T19:54:22.241Z,3.73
2022-10-26T19:56:50.735Z,3.60
2022-10-26T19:59:19.647Z,4.07
2022-10-26T20:01:48.239Z,3.97
2022-10-26T20:04:16.659Z,3.70
2022-10-26T20:06:45.102Z,3.07
2022-10-26T20:09:14.909Z,3.43
2022-10-26T20:11:43.883Z,3.57
2022-10-26T20:14:14.039Z,4.23
2022-10-26T20:16:42.649Z,3.90
2022-10-26T20:19:11.553Z,3.70
2022-10-26T20:21:40.483Z,3.97
2022-10-26T20:24:10.454Z,3.40
2022-10-26T20:26:40.984Z,2.70
2022-10-26T20:29:09.791Z,3.30
2022-10-26T20:31:38.761Z,2.43
2022-10-26T20:34:07.296Z,2.57
2022-10-26T20:36:35.747Z,2.10
2022-10-26T20:39:06.270Z,2.30
2022-10-26T20:41:41.383Z,2.40
2022-10-26T20:44:23.578Z,2.20
2022-10-26T20:46:53.380Z,2.70
2022-10-26T20:49:22.735Z,2.70
2022-10-26T20:52:20.000Z,3.03
2022-10-26T20:54:59.073Z,3.00
2022-10-26T20:57:33.203Z,2.87
2022-10-26T21:00:08.982Z,2.90
2022-10-26T21:02:37.752Z,3.00
2022-10-26T21:05:07.799Z,2.90
2022-10-26T21:07:36.336Z,2.90
2022-10-26T21:10:05.858Z,2.80
2022-10-26T21:12:34.362Z,2.53
2022-10-26T21:15:04.685Z,3.10
2022-10-26T21:17:34.359Z,3.57
2022-10-26T21:20:03.333Z,2.53
2022-10-26T21:22:31.793Z,2.90
2022-10-26T21:25:00.400Z,2.60
2022-10-26T21:27:29.369Z,2.53
2022-10-26T21:29:58.207Z,2.80
2022-10-26T21:32:28.113Z,2.47
2022-10-26T21:34:56.535Z,2.90
2022-10-26T21:37:26.878Z,2.90
2022-10-26T21:39:55.428Z,3.30
2022-10-26T21:42:24.165Z,2.83
2022-10-26T21:44:52.715Z,2.90
2022-10-26T21:47:21.151Z,2.77
2022-10-26T21:49:51.168Z,2.60
2022-10-26T21:52:19.737Z,2.80
2022-10-26T21:54:48.421Z,2.87
2022-10-26T21:57:17.470Z,2.97
2022-10-26T21:59:46.045Z,2.70
2022-10-26T22:02:14.567Z,2.77
2022-10-26T22:04:43.041Z,2.50
2022-10-26T22:07:12.959Z,2.63
2022-10-26T22:10:00.317Z,2.70
2022-10-26T22:12:30.129Z,2.50
2022-10-26T22:14:59.085Z,2.17
2022-10-26T22:17:27.592Z,2.30
2022-10-26T22:19:56.040Z,2.37
2022-10-26T22:22:25.921Z,2.10
2022-10-26T22:24:54.370Z,2.37
2022-10-26T22:27:22.785Z,2.20
2022-10-26T22:29:51.188Z,3.03
2022-10-26T22:32:20.316Z,2.30
2022-10-26T22:34:53.157Z,2.20
2022-10-26T22:37:31.200Z,2.23
2022-10-26T22:39:59.965Z,2.20
2022-10-26T22:42:28.872Z,2.20
2022-10-26T22:44:57.305Z,2.20
2022-10-26T22:47:25.734Z,2.37
2022-10-26T22:49:54.679Z,2.27
2022-10-26T22:52:23.643Z,2.03
2022-10-26T22:54:53.542Z,2.07
2022-10-26T22:57:21.929Z,2.03
2022-10-26T22:59:50.398Z,1.90
2022-10-26T23:02:19.462Z,1.63
2022-10-26T23:04:48.282Z,1.93
2022-10-26T23:07:17.070Z,1.97
2022-10-26T23:09:45.779Z,2.40
2022-10-26T23:12:15.562Z,1.73
2022-10-26T23:14:44.339Z,1.77
2022-10-26T23:17:12.842Z,1.77
2022-10-26T23:19:41.247Z,1.70
2022-10-26T23:22:09.757Z,2.33
2022-10-26T23:24:38.524Z,1.43
2022-10-26T23:27:07.325Z,1.83
2022-10-26T23:29:37.261Z,1.83
2022-10-26T23:32:06.368Z,1.53
2022-10-26T23:34:34.762Z,2.00
2022-10-26T23:37:03.682Z,2.10
2022-10-26T23:39:32.483Z,2.00
2022-10-26T23:42:00.902Z,2.50
2022-10-26T23:44:29.280Z,2.40
2022-10-26T23:46:59.364Z,2.17
2022-10-26T23:49:28.222Z,2.00
2022-10-26T23:51:56.879Z,2.50
2022-10-26T23:54:25.470Z,2.00
2022-10-26T23:56:53.866Z,2.10
2022-10-26T23:59:22.823Z,2.40
